Time;durP1;ratioP1;P1;durP2;ratioP2;P2;SDS_P1;SDS_P2;PMS_P1;PMS_P2;Temp;Humidity;BMP_temperature;BMP_pressure;BME280_temperature;BME280_humidity;BME280_pressure;Samples;Min_cycle;Max_cycle;Signal;HPM_P1;HPM_P2
2022/05/18 00:01:56;;;;;;;17.85;12.23;;;;;;;18.19;66.86;101811.72;4969516;28;20058;-71
2022/05/18 00:04:22;;;;;;;20.73;13.05;;;;;;;18.15;66.95;101810.81;4964676;28;20055;-70
2022/05/18 00:06:47;;;;;;;19.55;13.25;;;;;;;18.11;66.97;101814.31;4954227;28;20023;-70
2022/05/18 00:09:12;;;;;;;20.92;13.35;;;;;;;18.08;67.22;101817.78;4954224;28;20018;-70
2022/05/18 00:11:37;;;;;;;18.48;13.43;;;;;;;18.06;67.12;101813.38;4957114;28;20035;-71
2022/05/18 00:14:03;;;;;;;19.77;14.13;;;;;;;18.05;67.30;101817.78;4971631;28;20474;-71
2022/05/18 00:16:28;;;;;;;20.80;13.38;;;;;;;18.11;67.55;101810.81;4957537;28;20035;-71
2022/05/18 00:18:54;;;;;;;18.48;11.43;;;;;;;18.05;66.85;101816.91;4971599;28;20026;-71
2022/05/18 00:21:20;;;;;;;18.98;11.13;;;;;;;18.03;66.15;101823.91;4955450;28;20122;-70
2022/05/18 00:23:45;;;;;;;18.13;11.10;;;;;;;17.95;66.52;101821.22;4967287;28;20106;-71
2022/05/18 00:26:11;;;;;;;20.15;12.07;;;;;;;17.90;66.71;101823.81;4952791;28;20391;-70
2022/05/18 00:28:36;;;;;;;19.55;12.13;;;;;;;17.81;67.25;101818.41;4965975;28;20054;-70
2022/05/18 00:31:02;;;;;;;17.40;12.57;;;;;;;17.80;67.17;101824.56;4963753;28;20023;-71
2022/05/18 00:33:28;;;;;;;18.63;12.70;;;;;;;17.71;67.40;101821.81;4967485;28;20582;-71
2022/05/18 00:35:53;;;;;;;20.35;12.98;;;;;;;17.67;67.60;101820.94;4952715;28;20114;-71
2022/05/18 00:38:18;;;;;;;18.27;13.05;;;;;;;17.65;67.98;101825.28;4963338;28;20023;-71
2022/05/18 00:40:47;;;;;;;23.63;13.68;;;;;;;17.67;68.18;101820.03;4971468;28;20446;-71
2022/05/18 00:43:40;;;;;;;19.30;13.85;;;;;;;17.67;67.69;101825.28;4965844;28;20062;-70
2022/05/18 00:46:08;;;;;;;22.67;13.77;;;;;;;17.62;67.92;101822.63;4955259;28;20050;-71
2022/05/18 00:48:33;;;;;;;18.77;13.07;;;;;;;17.62;68.10;101832.28;4971205;28;20038;-70
2022/05/18 00:51:02;;;;;;;21.20;13.80;;;;;;;17.53;68.16;101826.03;4963234;28;20031;-70
2022/05/18 00:53:34;;;;;;;19.58;13.20;;;;;;;17.47;68.02;101822.47;4964975;28;20027;-70
2022/05/18 00:56:03;;;;;;;21.10;12.55;;;;;;;17.42;68.57;101825.03;4966216;28;20039;-71
2022/05/18 00:58:44;;;;;;;18.50;12.85;;;;;;;17.48;68.07;101824.22;4968606;28;20038;-71
2022/05/18 01:01:10;;;;;;;20.27;13.30;;;;;;;17.47;68.26;101823.34;4970507;28;20162;-71
2022/05/18 01:03:42;;;;;;;16.33;12.23;;;;;;;17.36;68.73;101824.97;4964337;28;20113;-70
2022/05/18 01:06:07;;;;;;;20.23;13.00;;;;;;;17.42;68.90;101818.91;4960112;28;20039;-70
2022/05/18 01:08:44;;;;;;;20.10;12.40;;;;;;;17.38;68.44;101823.25;4964392;28;20158;-71
2022/05/18 01:11:10;;;;;;;17.70;11.70;;;;;;;17.28;68.40;101824.00;4954438;28;20351;-70
2022/05/18 01:13:35;;;;;;;21.45;12.57;;;;;;;17.25;68.98;101826.59;4956435;28;20038;-71
2022/05/18 01:16:01;;;;;;;19.33;12.38;;;;;;;17.18;68.98;101825.66;4955906;28;20502;-70
2022/05/18 01:18:27;;;;;;;22.95;13.05;;;;;;;17.18;69.22;101823.91;4956097;28;20113;-71
2022/05/18 01:20:52;;;;;;;18.23;12.38;;;;;;;17.18;68.87;101816.00;4964361;28;20026;-71
2022/05/18 01:23:39;;;;;;;18.25;13.23;;;;;;;17.22;68.00;101819.56;4965505;28;20037;-70
2022/05/18 01:26:20;;;;;;;19.20;12.98;;;;;;;17.15;68.57;101821.22;4967024;28;20493;-71
2022/05/18 01:28:53;;;;;;;19.45;13.60;;;;;;;17.08;69.09;101810.63;4968176;28;20027;-70
2022/05/18 01:31:36;;;;;;;21.73;14.55;;;;;;;17.04;69.90;101814.94;4951110;28;20089;-70
2022/05/18 01:34:02;;;;;;;21.98;14.38;;;;;;;17.01;69.93;101815.78;4974150;28;20541;-70
2022/05/18 01:36:27;;;;;;;22.70;13.43;;;;;;;16.99;70.30;101814.03;4962178;28;20114;-71
2022/05/18 01:38:52;;;;;;;17.25;12.77;;;;;;;17.04;69.59;101817.56;4959868;28;20508;-70
2022/05/18 01:41:21;;;;;;;24.52;13.68;;;;;;;16.96;69.41;101824.47;4973956;28;20097;-71
2022/05/18 01:43:53;;;;;;;22.08;13.02;;;;;;;17.01;69.22;101822.81;4960284;28;20033;-70
2022/05/18 01:46:20;;;;;;;19.23;13.57;;;;;;;16.98;68.86;101823.66;4954384;28;20038;-70
2022/05/18 01:48:50;;;;;;;20.45;13.80;;;;;;;16.91;69.02;101820.94;4958552;28;20038;-71
2022/05/18 01:51:28;;;;;;;17.80;13.18;;;;;;;16.93;69.03;101824.44;4973861;28;20063;-71
2022/05/18 01:53:54;;;;;;;19.02;13.68;;;;;;;16.87;69.59;101819.94;4961450;28;20616;-70
2022/05/18 01:56:19;;;;;;;19.40;13.90;;;;;;;16.90;70.07;101816.50;4964599;28;20186;-70
2022/05/18 01:58:46;;;;;;;20.70;14.25;;;;;;;16.83;70.06;101821.69;4969091;28;20031;-70
2022/05/18 02:01:11;;;;;;;21.05;13.80;;;;;;;16.81;70.41;101819.88;4958740;28;20051;-70
2022/05/18 02:03:36;;;;;;;22.20;13.73;;;;;;;16.81;70.33;101818.13;4962735;28;20027;-70
2022/05/18 02:06:02;;;;;;;21.35;14.57;;;;;;;16.81;69.81;101820.75;4962396;28;20131;-70
2022/05/18 02:08:27;;;;;;;19.52;14.32;;;;;;;16.78;69.94;101822.47;4956248;28;20110;-70
2022/05/18 02:10:52;;;;;;;19.90;14.55;;;;;;;16.74;70.44;101820.66;4960636;28;20114;-70
2022/05/18 02:13:18;;;;;;;20.58;15.25;;;;;;;16.72;70.32;101820.63;4972899;28;20035;-71
2022/05/18 02:15:43;;;;;;;21.63;15.48;;;;;;;16.69;71.73;101820.59;4968265;28;20027;-70
2022/05/18 02:18:09;;;;;;;21.98;15.77;;;;;;;16.67;71.76;101822.34;4965831;28;20027;-70
2022/05/18 02:20:34;;;;;;;18.27;13.68;;;;;;;16.67;71.04;101822.34;4970329;28;20406;-70
2022/05/18 02:23:00;;;;;;;26.40;14.55;;;;;;;16.60;70.93;101816.09;4965353;28;20149;-70
2022/05/18 02:25:26;;;;;;;19.02;13.95;;;;;;;16.56;71.13;101808.13;4966214;28;20058;-70
2022/05/18 02:27:51;;;;;;;18.63;13.63;;;;;;;16.60;70.57;101809.97;4959410;28;20130;-70
2022/05/18 02:30:17;;;;;;;19.42;13.75;;;;;;;16.58;71.27;101814.28;4970485;28;20038;-70
2022/05/18 02:32:43;;;;;;;20.00;14.15;;;;;;;16.57;71.66;101812.50;4969468;28;20054;-70
2022/05/18 02:35:08;;;;;;;19.45;13.73;;;;;;;16.55;72.15;101806.38;4969466;28;20106;-70
2022/05/18 02:37:34;;;;;;;20.75;14.60;;;;;;;16.56;71.93;101814.28;4955169;28;20542;-70
2022/05/18 02:40:00;;;;;;;19.95;13.93;;;;;;;16.58;72.01;101811.66;4954089;28;20070;-70
2022/05/18 02:42:25;;;;;;;21.48;13.73;;;;;;;16.58;72.07;101816.94;4973023;28;20483;-70
2022/05/18 02:44:50;;;;;;;18.48;13.70;;;;;;;16.57;71.93;101809.88;4963100;28;20035;-70
2022/05/18 02:47:17;;;;;;;21.25;14.57;;;;;;;16.55;72.29;101811.63;4964930;28;20113;-70
2022/05/18 02:49:43;;;;;;;22.02;15.40;;;;;;;16.51;72.69;101811.59;4972715;28;20046;-70
2022/05/18 02:52:08;;;;;;;20.33;14.30;;;;;;;16.51;71.80;101814.22;4965629;28;20027;-70
2022/05/18 02:57:19;;;;;;;21.00;14.85;;;;;;;16.52;72.26;101817.72;4961860;28;20038;-70
2022/05/18 02:59:45;;;;;;;19.35;14.95;;;;;;;16.47;72.72;101815.03;4965046;28;20027;-70
2022/05/18 03:02:10;;;;;;;21.20;14.77;;;;;;;16.44;73.23;101809.72;4957271;28;20592;-70
2022/05/18 03:04:35;;;;;;;20.60;15.32;;;;;;;16.51;73.10;101822.09;4959426;28;20186;-70
2022/05/18 03:07:01;;;;;;;19.30;14.40;;;;;;;16.49;72.77;101821.19;4972795;28;20023;-70
2022/05/18 03:09:26;;;;;;;18.70;14.05;;;;;;;16.48;72.29;101827.31;4958811;28;20174;-70
2022/05/18 03:11:51;;;;;;;18.80;13.90;;;;;;;16.44;72.08;101829.91;4972942;28;20473;-70
2022/05/18 03:14:17;;;;;;;19.05;14.15;;;;;;;16.44;71.91;101830.78;4967479;28;20050;-70
2022/05/18 03:16:44;;;;;;;18.35;14.13;;;;;;;16.43;71.56;101822.84;4960988;28;20166;-70
2022/05/18 03:19:10;;;;;;;19.25;14.38;;;;;;;16.39;71.69;101835.06;4964199;28;20030;-70
2022/05/18 03:24:20;;;;;;;17.10;13.40;;;;;;;16.35;71.84;101830.59;4955429;28;20549;-70
2022/05/18 03:26:45;;;;;;;20.33;13.93;;;;;;;16.34;71.65;101839.38;4964551;28;20031;-70
2022/05/18 03:29:11;;;;;;;19.35;13.85;;;;;;;16.35;72.01;101835.88;4948904;28;20035;-70
2022/05/18 03:31:36;;;;;;;19.88;14.73;;;;;;;16.33;71.83;101846.38;4965558;28;20077;-70
2022/05/18 03:34:01;;;;;;;21.08;14.32;;;;;;;16.35;73.11;101851.66;4965208;28;20023;-70
2022/05/18 03:36:27;;;;;;;19.75;14.30;;;;;;;16.34;73.20;101849.91;4958783;28;20056;-70
2022/05/18 03:38:53;;;;;;;24.98;14.65;;;;;;;16.30;74.10;101853.34;4953703;28;20397;-70
2022/05/18 03:41:18;;;;;;;22.08;14.27;;;;;;;16.31;74.39;101855.13;4970280;28;20510;-70
2022/05/18 03:43:44;;;;;;;20.08;14.00;;;;;;;16.32;74.03;101856.88;4962077;28;20023;-70
2022/05/18 03:46:10;;;;;;;20.63;14.52;;;;;;;16.34;74.14;101855.16;4959714;28;20390;-70
2022/05/18 03:48:36;;;;;;;22.25;14.35;;;;;;;16.33;73.92;101848.13;4972003;28;20027;-70
2022/05/18 03:51:04;;;;;;;18.40;13.88;;;;;;;16.27;73.98;101855.94;4958146;28;20383;-70
2022/05/18 03:53:30;;;;;;;19.83;14.25;;;;;;;16.29;73.62;101860.34;4962793;28;20026;-70
2022/05/18 03:55:55;;;;;;;20.65;14.32;;;;;;;16.31;73.19;101863.00;4965471;28;20060;-70
2022/05/18 03:58:21;;;;;;;21.70;14.80;;;;;;;16.29;73.95;101867.34;4971829;28;20568;-70
2022/05/18 04:00:48;;;;;;;20.45;14.95;;;;;;;16.29;73.27;101869.97;4968642;28;20035;-70
2022/05/18 04:03:15;;;;;;;20.52;15.05;;;;;;;16.26;73.76;101862.91;4963331;28;20054;-70
2022/05/18 04:05:41;;;;;;;24.83;15.13;;;;;;;16.29;74.44;101855.09;4953383;28;20055;-70
2022/05/18 04:08:10;;;;;;;20.63;15.45;;;;;;;16.29;74.95;101855.09;4943848;28;20027;-70
2022/05/18 04:10:38;;;;;;;21.55;16.08;;;;;;;16.30;74.77;101854.22;4967318;28;20031;-70
2022/05/18 04:13:05;;;;;;;21.17;15.02;;;;;;;16.30;74.91;101859.47;4960500;28;20041;-70
2022/05/18 04:15:30;;;;;;;21.42;15.07;;;;;;;16.32;74.72;101856.88;4971461;28;20574;-70
2022/05/18 04:17:56;;;;;;;21.17;14.45;;;;;;;16.35;75.26;101856.91;4965737;28;20057;-70
2022/05/18 04:20:23;;;;;;;20.50;15.05;;;;;;;16.35;75.33;101851.66;4971732;28;20035;-70
2022/05/18 04:22:49;;;;;;;21.45;14.10;;;;;;;16.35;76.00;101859.53;4957220;28;20030;-70
2022/05/18 04:25:18;;;;;;;19.60;14.93;;;;;;;16.36;76.65;101863.94;4965607;28;20023;-70
2022/05/18 04:27:47;;;;;;;21.05;15.32;;;;;;;16.45;76.19;101861.50;4967979;28;20034;-70
2022/05/18 04:30:17;;;;;;;20.55;14.75;;;;;;;16.48;76.27;101860.63;4970073;28;20031;-70
2022/05/18 04:32:43;;;;;;;20.70;14.57;;;;;;;16.50;76.47;101862.44;4970899;28;20398;-70
2022/05/18 04:35:10;;;;;;;22.50;14.77;;;;;;;16.56;76.42;101861.63;4962269;28;20046;-70
2022/05/18 04:37:36;;;;;;;22.02;14.18;;;;;;;16.62;76.59;101871.38;4952814;28;20022;-70
2022/05/18 04:40:03;;;;;;;22.25;15.10;;;;;;;16.64;77.39;101867.91;4969473;28;20022;-70
2022/05/18 04:42:28;;;;;;;20.13;14.38;;;;;;;16.69;77.54;101874.09;4971197;28;20031;-70
2022/05/18 04:44:54;;;;;;;20.02;14.45;;;;;;;16.77;77.57;101865.44;4967803;28;20034;-70
2022/05/18 04:47:24;;;;;;;20.45;14.25;;;;;;;16.82;77.57;101883.06;4975131;28;20073;-70
2022/05/18 04:49:50;;;;;;;21.20;13.40;;;;;;;16.86;77.74;101879.63;4968924;28;20580;-70
2022/05/18 04:52:19;;;;;;;16.60;12.27;;;;;;;16.95;76.09;101889.44;4975313;28;20474;-70
2022/05/18 04:54:45;;;;;;;16.52;11.27;;;;;;;17.05;75.04;101890.44;4946046;28;20423;-70
2022/05/18 04:57:11;;;;;;;16.88;10.35;;;;;;;17.12;74.26;101887.03;4973859;28;20042;-70
2022/05/18 04:59:36;;;;;;;14.25;10.73;;;;;;;17.23;73.36;101889.78;4964902;28;20031;-70
2022/05/18 05:02:02;;;;;;;16.80;10.20;;;;;;;17.28;72.98;101890.75;4966591;28;20035;-70
2022/05/18 05:04:28;;;;;;;15.25;10.20;;;;;;;17.37;73.46;101900.53;4951468;28;20110;-70
2022/05/18 05:06:53;;;;;;;14.85;10.13;;;;;;;17.41;72.57;101909.34;4958756;28;20553;-70
2022/05/18 05:09:22;;;;;;;13.65;9.88;;;;;;;17.46;72.99;101895.34;4942681;28;20043;-70
2022/05/18 05:11:47;;;;;;;14.35;10.10;;;;;;;17.53;72.94;101901.59;4954684;28;20026;-71
2022/05/18 05:14:13;;;;;;;14.48;10.15;;;;;;;17.59;72.42;101903.41;4947182;28;20108;-70
2022/05/18 05:16:38;;;;;;;12.35;8.98;;;;;;;17.66;71.59;101907.91;4967231;28;20031;-70
2022/05/18 05:19:03;;;;;;;14.60;9.50;;;;;;;17.73;71.43;101909.72;4957533;28;20034;-71
2022/05/18 05:21:29;;;;;;;16.02;9.25;;;;;;;17.82;71.06;101909.81;4968692;28;20031;-70
2022/05/18 05:23:54;;;;;;;16.20;9.05;;;;;;;17.89;71.05;101911.66;4963974;28;20027;-70
2022/05/18 05:26:19;;;;;;;12.85;9.57;;;;;;;17.97;71.12;101909.13;4974335;28;20054;-70
2022/05/18 05:28:44;;;;;;;16.15;9.25;;;;;;;18.04;70.50;101912.72;4961391;28;20461;-70
2022/05/18 05:31:11;;;;;;;13.05;9.23;;;;;;;18.10;69.54;101918.03;4974206;28;20034;-70
2022/05/18 05:33:39;;;;;;;14.82;9.90;;;;;;;18.17;69.67;101917.22;4962705;28;20045;-70
2022/05/18 05:36:05;;;;;;;13.60;9.35;;;;;;;18.22;69.02;101910.25;4956722;28;20035;-70
2022/05/18 05:38:31;;;;;;;13.25;9.20;;;;;;;18.28;69.77;101919.97;4973962;28;20126;-70
2022/05/18 05:40:57;;;;;;;11.85;8.77;;;;;;;18.31;68.90;101919.13;4947877;28;20111;-70
2022/05/18 05:43:23;;;;;;;14.85;9.18;;;;;;;18.32;69.34;101928.78;4967838;28;20039;-70
2022/05/18 05:45:57;;;;;;;11.95;8.82;;;;;;;18.34;69.98;101935.84;4958456;28;20030;-69
2022/05/18 05:48:23;;;;;;;13.18;9.07;;;;;;;18.37;69.62;101927.09;4961655;28;20284;-69
2022/05/18 05:50:49;;;;;;;15.52;9.48;;;;;;;18.39;69.99;101926.25;4963627;28;20598;-69
2022/05/18 05:53:14;;;;;;;15.13;9.75;;;;;;;18.46;69.65;101931.56;4960584;28;20398;-70
2022/05/18 05:55:39;;;;;;;14.00;9.20;;;;;;;18.59;69.67;101938.69;4960270;28;20095;-69
2022/05/18 05:58:04;;;;;;;15.93;9.70;;;;;;;18.76;69.65;101944.13;4968985;28;20040;-69
2022/05/18 06:00:30;;;;;;;17.35;10.20;;;;;;;18.86;69.22;101950.34;4957787;28;20098;-71
2022/05/18 06:02:55;;;;;;;14.45;9.48;;;;;;;18.94;68.53;101944.28;4973665;28;20030;-77
2022/05/18 06:05:20;;;;;;;13.55;9.88;;;;;;;19.05;68.98;101948.75;4949586;28;20054;-77
2022/05/18 06:07:46;;;;;;;14.65;9.20;;;;;;;19.09;67.82;101947.91;4961840;28;20062;-76
2022/05/18 06:10:12;;;;;;;15.38;9.30;;;;;;;19.16;67.76;101944.41;4968790;28;20486;-76
2022/05/18 06:12:38;;;;;;;17.90;9.38;;;;;;;19.22;67.29;101955.00;4961288;28;20034;-75
2022/05/18 06:15:04;;;;;;;14.75;9.10;;;;;;;19.27;67.04;101947.97;4951465;28;20387;-75
2022/05/18 06:17:30;;;;;;;13.05;8.63;;;;;;;19.27;66.68;101941.81;4957531;28;20042;-71
2022/05/18 06:19:55;;;;;;;13.77;8.70;;;;;;;19.27;67.06;101947.09;4967732;28;20398;-71
2022/05/18 06:22:20;;;;;;;13.98;9.10;;;;;;;19.26;66.54;101948.88;4960928;28;20057;-71
2022/05/18 06:24:49;;;;;;;14.82;9.10;;;;;;;19.23;66.74;101956.78;4973559;28;20023;-71
2022/05/18 06:27:15;;;;;;;13.88;9.25;;;;;;;19.24;66.90;101968.22;4955293;28;20028;-71
2022/05/18 06:29:40;;;;;;;13.57;9.18;;;;;;;19.24;67.59;101973.50;4956074;28;20565;-71
2022/05/18 06:32:06;;;;;;;15.45;8.98;;;;;;;19.24;67.34;101969.09;4966956;28;20027;-71
2022/05/18 06:34:31;;;;;;;13.70;8.60;;;;;;;19.23;67.98;101969.09;4969323;28;20121;-71
2022/05/18 06:36:57;;;;;;;12.60;8.15;;;;;;;19.27;67.50;101974.41;4973090;28;20504;-71
2022/05/18 06:39:22;;;;;;;12.48;7.95;;;;;;;19.30;66.97;101973.53;4953094;28;20082;-71
2022/05/18 06:41:48;;;;;;;12.48;8.35;;;;;;;19.32;67.75;101987.66;4930325;29;20015;-71
2022/05/18 06:44:14;;;;;;;12.32;8.05;;;;;;;19.34;67.13;101977.09;4948119;28;20026;-71
2022/05/18 06:46:39;;;;;;;12.35;8.10;;;;;;;19.36;67.08;101983.25;4961528;28;20110;-71
2022/05/18 06:49:07;;;;;;;12.50;8.00;;;;;;;19.39;66.62;101984.19;4968095;28;20115;-71
2022/05/18 06:51:37;;;;;;;15.38;8.10;;;;;;;19.40;66.68;101982.41;4965052;28;20094;-71
2022/05/18 06:54:03;;;;;;;13.63;8.20;;;;;;;19.42;65.92;101981.53;4964518;28;20093;-71
2022/05/18 06:56:32;;;;;;;16.02;8.68;;;;;;;19.48;65.31;101987.72;4972573;28;20030;-71
2022/05/18 06:58:57;;;;;;;;;;;;;;;19.50;65.78;101984.22;4961395;28;20498;-71
2022/05/18 07:01:24;;;;;;;18.80;9.32;;;;;;;19.50;64.14;101992.16;4952676;28;19965;-71
2022/05/18 07:03:49;;;;;;;16.42;9.15;;;;;;;19.51;64.71;101990.38;4969504;28;20113;-71
2022/05/18 07:06:17;;;;;;;18.88;9.05;;;;;;;19.51;65.55;101993.03;4968440;28;20114;-71
2022/05/18 07:08:42;;;;;;;18.00;10.10;;;;;;;19.53;65.10;101992.16;4968934;28;20030;-71
2022/05/18 07:11:08;;;;;;;19.80;11.10;;;;;;;19.55;64.65;102006.28;4952888;28;20024;-70
2022/05/18 07:13:38;;;;;;;17.75;11.55;;;;;;;19.56;65.17;102005.38;4959737;28;20401;-71
2022/05/18 07:16:04;;;;;;;21.98;12.50;;;;;;;19.64;65.73;102005.44;4966198;28;20094;-72
2022/05/18 07:18:31;;;;;;;22.17;14.38;;;;;;;19.73;66.81;102010.75;4972731;28;20026;-72
2022/05/18 07:20:58;;;;;;;20.67;14.80;;;;;;;19.82;66.13;102017.88;4962893;28;20030;-71
2022/05/18 07:23:25;;;;;;;22.85;15.05;;;;;;;19.89;65.91;102022.31;4967912;28;20023;-71
2022/05/18 07:25:54;;;;;;;23.63;15.18;;;;;;;19.93;66.14;102018.81;4967168;28;20104;-71
2022/05/18 07:30:55;;;;;;;22.98;15.65;;;;;;;20.00;66.78;102019.69;5254243;23;20055;-72
2022/05/18 07:33:22;;;;;;;22.25;14.55;;;;;;;20.03;66.87;102027.69;4948111;28;20031;-71
2022/05/18 07:35:49;;;;;;;22.50;14.45;;;;;;;20.04;67.13;102023.25;4954974;28;20557;-72
2022/05/18 07:38:14;;;;;;;19.83;13.65;;;;;;;20.07;66.73;102020.63;4952707;28;20031;-72
2022/05/18 07:40:40;;;;;;;22.55;13.77;;;;;;;20.08;67.35;102020.63;4952176;28;20049;-71
2022/05/18 07:43:06;;;;;;;22.98;13.82;;;;;;;20.11;68.91;102017.09;4952665;28;20514;-71
2022/05/18 07:45:32;;;;;;;21.50;13.80;;;;;;;20.08;68.00;102020.63;4956971;28;20031;-72
2022/05/18 07:47:57;;;;;;;20.50;13.50;;;;;;;20.07;67.14;102021.47;4952077;28;20100;-71
2022/05/18 07:50:24;;;;;;;21.55;14.20;;;;;;;20.08;67.79;102032.97;4952566;28;20517;-71
2022/05/18 07:52:51;;;;;;;19.77;13.93;;;;;;;20.12;68.19;102032.13;4951911;28;20137;-72
2022/05/18 07:55:16;;;;;;;22.35;15.18;;;;;;;20.21;68.98;102032.13;4952457;28;20402;-71
2022/05/18 07:57:41;;;;;;;24.55;14.88;;;;;;;20.25;68.44;102030.38;4960633;28;20508;-71
2022/05/18 08:00:08;;;;;;;26.67;16.23;;;;;;;20.30;68.15;102034.78;4952261;28;20102;-71
2022/05/18 08:02:34;;;;;;;22.50;15.40;;;;;;;20.35;69.34;102033.91;4954781;28;20033;-71
2022/05/18 08:04:59;;;;;;;26.20;15.20;;;;;;;20.42;68.89;102038.34;4951677;28;20043;-71
2022/05/18 08:07:25;;;;;;;20.13;15.27;;;;;;;20.45;69.08;102038.34;4955365;28;20038;-71
2022/05/18 08:15:20;;;;;;;21.98;15.18;;;;;;;20.58;70.85;102055.13;4952014;28;20082;-72
2022/05/18 08:17:46;;;;;;;21.83;14.30;;;;;;;20.65;70.62;102047.22;4963121;28;20581;-71
2022/05/18 08:20:13;;;;;;;23.83;15.75;;;;;;;20.74;71.08;102050.75;4952174;28;20130;-71
2022/05/18 08:22:40;;;;;;;22.23;14.55;;;;;;;20.73;69.97;102038.44;4954477;28;20392;-71
2022/05/18 08:25:06;;;;;;;24.30;16.42;;;;;;;20.78;69.71;102031.34;4952074;28;20023;-72
2022/05/18 08:27:32;;;;;;;22.30;16.88;;;;;;;20.82;70.61;102044.59;4952041;28;20082;-71
2022/05/18 08:30:05;;;;;;;22.75;15.52;;;;;;;20.88;69.26;102043.72;4947690;28;20058;-71
2022/05/18 08:32:30;;;;;;;22.75;16.50;;;;;;;20.93;69.23;102039.31;4938367;29;20027;-72
2022/05/18 08:34:56;;;;;;;22.42;17.10;;;;;;;20.98;67.98;102044.59;4918290;29;20463;-71
2022/05/18 08:37:25;;;;;;;23.95;17.50;;;;;;;21.07;70.15;102038.41;4930707;29;20034;-71
2022/05/18 08:39:51;;;;;;;21.73;16.38;;;;;;;21.11;69.27;102046.34;4931378;29;20106;-74
2022/05/18 08:42:19;;;;;;;23.00;16.60;;;;;;;21.17;67.37;102045.47;4932713;29;20038;-73
2022/05/18 08:44:46;;;;;;;22.57;17.13;;;;;;;21.24;68.67;102047.22;4929597;29;20111;-73
2022/05/18 08:47:41;;;;;;;22.25;16.90;;;;;;;21.29;67.91;102053.41;4932483;29;20136;-74
2022/05/18 08:50:13;;;;;;;25.65;17.73;;;;;;;21.40;67.84;102045.41;4931471;29;20083;-74
2022/05/18 08:53:09;;;;;;;25.13;17.90;;;;;;;21.49;68.82;102053.38;4933149;29;20027;-74
2022/05/18 08:55:49;;;;;;;21.40;16.70;;;;;;;21.55;68.10;102047.16;4931628;29;20468;-74
2022/05/18 08:58:33;;;;;;;24.00;16.83;;;;;;;21.58;67.77;102051.59;4932894;29;20136;-71
2022/05/18 09:01:04;;;;;;;22.75;16.02;;;;;;;21.68;69.90;102043.63;4932159;29;20407;-71
2022/05/18 09:03:47;;;;;;;20.98;15.10;;;;;;;21.78;67.93;102046.22;4930138;29;20562;-71
2022/05/18 09:06:23;;;;;;;21.92;14.70;;;;;;;21.84;67.68;102046.19;4929032;29;20031;-71
2022/05/18 09:10:12;;;;;;;17.92;13.02;;;;;;;21.92;68.19;102052.34;4932160;29;20023;-71
2022/05/18 09:11:40;;;;;;;16.92;10.93;;;;;;;22.06;69.17;102057.63;4930222;29;20043;-71
2022/05/18 09:14:09;;;;;;;16.27;11.80;;;;;;;22.16;67.68;102055.78;4934008;29;20035;-69
2022/05/18 09:16:34;;;;;;;19.58;11.15;;;;;;;22.21;66.51;102059.28;4934913;29;20168;-69
2022/05/18 09:19:11;;;;;;;18.57;11.60;;;;;;;22.26;64.82;102052.19;4934797;29;20503;-69
2022/05/18 09:21:57;;;;;;;16.15;10.50;;;;;;;22.28;67.15;102045.09;4949835;28;20036;-69
2022/05/18 09:24:53;;;;;;;17.63;11.80;;;;;;;22.33;65.96;102043.34;4950672;28;20587;-69
2022/05/18 09:27:19;;;;;;;14.82;10.02;;;;;;;22.38;64.86;102046.84;4938784;29;20039;-69
2022/05/18 09:30:15;;;;;;;15.90;9.50;;;;;;;22.44;65.77;102045.03;4943511;29;20138;-68
2022/05/18 09:32:59;;;;;;;15.20;9.50;;;;;;;22.53;66.26;102050.28;4942543;29;20027;-69
2022/05/18 09:35:45;;;;;;;16.30;10.85;;;;;;;22.58;65.60;102061.78;4936957;29;20028;-69
2022/05/18 09:38:12;;;;;;;14.77;11.07;;;;;;;22.60;66.02;102053.78;4936583;29;20549;-70
2022/05/18 09:40:42;;;;;;;11.98;6.85;;;;;;;22.66;65.65;102056.38;4941035;29;20066;-69
2022/05/18 09:43:21;;;;;;;11.38;7.30;;;;;;;22.72;66.18;102049.25;4933626;29;20055;-69
2022/05/18 09:45:49;;;;;;;11.77;6.30;;;;;;;22.80;64.08;102059.81;4937441;29;20034;-68
2022/05/18 09:48:21;;;;;;;10.93;6.50;;;;;;;22.77;63.70;102053.63;4935275;29;20091;-69
2022/05/18 09:50:49;;;;;;;10.68;7.30;;;;;;;22.77;63.33;102058.94;4935422;29;20034;-69
2022/05/18 09:53:15;;;;;;;12.32;6.22;;;;;;;22.80;64.00;102059.81;4934858;29;20063;-69
2022/05/18 09:55:45;;;;;;;10.60;6.57;;;;;;;22.83;64.50;102054.47;4935171;29;20043;-70
2022/05/18 09:58:37;;;;;;;11.50;7.22;;;;;;;22.90;64.64;102057.97;4935451;29;20028;-70
2022/05/18 10:09:49;;;;;;;10.20;5.40;;;;;;;23.23;63.55;102058.56;4924829;29;20399;-69
2022/05/18 10:12:29;;;;;;;9.73;5.40;;;;;;;23.30;62.93;102056.75;4935886;29;20058;-69
2022/05/18 10:15:03;;;;;;;11.07;5.68;;;;;;;23.44;62.87;102055.69;4934951;29;20107;-70
2022/05/18 10:17:35;;;;;;;11.25;6.20;;;;;;;23.53;63.30;102046.72;4947997;28;20854;-69
2022/05/18 10:20:11;;;;;;;10.90;6.22;;;;;;;23.56;61.45;102048.47;4935959;29;20075;-69
2022/05/18 10:22:44;;;;;;;7.72;5.10;;;;;;;23.69;63.07;102051.88;4934942;29;20928;-69
2022/05/18 10:25:14;;;;;;;10.07;5.72;;;;;;;23.68;60.26;102050.13;4936482;29;20038;-70
2022/05/18 10:27:44;;;;;;;8.35;5.90;;;;;;;23.67;58.29;102048.38;4946462;28;20110;-69
2022/05/18 10:30:32;;;;;;;11.27;5.53;;;;;;;23.71;62.16;102047.41;4934542;29;20115;-69
2022/05/18 10:33:02;;;;;;;8.57;5.07;;;;;;;23.78;62.81;102057.09;4940330;29;20050;-69
2022/05/18 10:35:41;;;;;;;9.32;4.72;;;;;;;23.89;60.96;102052.53;4934557;29;20132;-69
2022/05/18 10:38:34;;;;;;;9.10;4.57;;;;;;;23.92;60.23;102055.16;4938234;29;20487;-69
2022/05/18 10:41:02;;;;;;;7.25;4.10;;;;;;;24.01;60.38;102048.84;4946065;28;20043;-69
2022/05/18 10:43:37;;;;;;;9.90;3.83;;;;;;;24.03;59.09;102047.06;4938668;28;20411;-69
2022/05/18 10:46:12;;;;;;;6.90;4.28;;;;;;;24.08;58.35;102041.66;4934422;29;20019;-69
2022/05/18 10:48:41;;;;;;;7.43;3.85;;;;;;;24.21;59.09;102040.59;4938067;29;20063;-68
2022/05/18 10:51:11;;;;;;;7.07;4.60;;;;;;;24.21;57.47;102045.91;4932697;29;20110;-70
2022/05/18 10:53:42;;;;;;;9.75;4.93;;;;;;;24.21;56.78;102034.38;4934416;29;20035;-72
2022/05/18 10:56:28;;;;;;;8.77;5.53;;;;;;;24.18;56.54;102034.44;4933528;28;20090;-72
2022/05/18 10:59:34;;;;;;;7.30;4.60;;;;;;;24.21;57.29;102029.06;4932782;29;20035;-72
2022/05/18 11:02:27;;;;;;;7.05;3.90;;;;;;;24.32;59.50;102037.78;4934615;28;20094;-74
2022/05/18 11:05:01;;;;;;;6.70;4.40;;;;;;;24.43;57.51;102035.84;4932472;29;20056;-73
2022/05/18 11:07:28;;;;;;;8.05;3.72;;;;;;;24.55;58.65;102045.41;4938831;29;20160;-72
2022/05/18 11:09:54;;;;;;;8.13;3.95;;;;;;;24.57;55.85;102032.06;4935408;29;20031;-73
2022/05/18 11:12:44;;;;;;;7.30;4.65;;;;;;;24.68;57.82;102032.81;4946231;28;20054;-74
2022/05/18 11:15:17;;;;;;;10.25;5.40;;;;;;;24.69;55.46;102041.69;4938261;29;20601;-74
2022/05/18 11:18:04;;;;;;;9.88;6.05;;;;;;;24.70;56.09;102040.78;4935809;29;20023;-74
2022/05/18 11:20:48;;;;;;;9.98;5.50;;;;;;;24.70;55.23;102032.78;4935220;28;20031;-74
2022/05/18 11:23:34;;;;;;;12.48;6.05;;;;;;;24.75;56.81;102026.47;4935946;29;20562;-74
2022/05/18 11:26:06;;;;;;;8.88;5.63;;;;;;;24.88;57.70;102032.44;4939006;29;20059;-74
2022/05/18 11:28:31;;;;;;;11.07;5.80;;;;;;;24.97;57.10;102020.78;4936823;29;20472;-73
2022/05/18 11:31:34;;;;;;;11.90;6.17;;;;;;;25.02;56.00;102026.88;4935373;29;20130;-74
2022/05/18 11:34:37;;;;;;;9.10;5.60;;;;;;;25.04;54.99;102014.41;4934879;29;20086;-74
2022/05/18 11:37:08;;;;;;;10.90;5.20;;;;;;;25.02;54.67;102013.56;4944705;28;20035;-73
2022/05/18 11:39:42;;;;;;;10.18;5.63;;;;;;;25.02;54.61;102013.56;4946299;29;20023;-74
2022/05/18 11:42:32;;;;;;;10.60;5.50;;;;;;;25.06;55.88;102014.41;4937609;29;20042;-74
2022/05/18 11:45:18;;;;;;;11.80;5.45;;;;;;;25.15;56.17;102011.53;4946078;29;20055;-73